This is the latest recevied weather packets stored in our database for station/object DB0FN-10. If no packets are shown the sender has not sent any weather packets the latest 10 day(s).
| Time | Temp. | Humidity | Pressure | Rain* | Wind** | Luminosity | Snow |
|---|---|---|---|---|---|---|---|
| 1777571159 | 15.56° C | 22% | 1025.5 hPa | - | - | - | - |
| 1777570259 | 16.11° C | 22% | 1025.4 hPa | - | - | - | - |
| 1777569359 | 16.11° C | 22% | 1025.5 hPa | - | - | - | - |
| 1777568459 | 16.67° C | 21% | 1025.4 hPa | - | - | - | - |
| 1777567559 | 16.11° C | 21% | 1025.4 hPa | - | - | - | - |
| 1777566658 | 16.67° C | 21% | 1025.6 hPa | - | - | - | - |
| 1777565758 | 16.67° C | 21% | 1025.5 hPa | - | - | - | - |
| 1777564858 | 17.78° C | 20% | 1025.4 hPa | - | - | - | - |
| 1777563958 | 16.67° C | 22% | 1025.4 hPa | - | - | - | - |
| 1777563058 | 16.67° C | 22% | 1025.4 hPa | - | - | - | - |
| 1777562158 | 17.22° C | 22% | 1025.5 hPa | - | - | - | - |
| 1777561258 | 17.22° C | 22% | 1025.5 hPa | - | - | - | - |
| 1777560358 | 17.22° C | 23% | 1025.4 hPa | - | - | - | - |
| 1777559458 | 17.22° C | 24% | 1025.5 hPa | - | - | - | - |
| 1777558558 | 17.78° C | 24% | 1025.6 hPa | - | - | - | - |
| 1777557658 | 17.22° C | 27% | 1025.5 hPa | - | - | - | - |
| 1777556758 | 17.22° C | 25% | 1025.7 hPa | - | - | - | - |
| 1777555857 | 17.22° C | 27% | 1025.7 hPa | - | - | - | - |
| 1777554957 | 17.22° C | 26% | 1025.5 hPa | - | - | - | - |
| 1777554057 | 16.67° C | 27% | 1025.5 hPa | - | - | - | - |
| 1777553157 | 17.22° C | 27% | 1025.7 hPa | - | - | - | - |
| 1777552257 | 16.67° C | 28% | 1025.7 hPa | - | - | - | - |
| 1777551357 | 17.22° C | 27% | 1025.7 hPa | - | - | - | - |
| 1777550457 | 16.67° C | 30% | 1025.7 hPa | - | - | - | - |
| 1777549557 | 16.67° C | 28% | 1025.7 hPa | - | - | - | - |
* Rain since midnight (hover to see other rain measurements)
** Current wind speed in m/s (hover to see current wind gust speed)